River Rouge, Michigan
Current Conditions -  °F | °C
As of 3:00 AM on Wednesday 26 Nov 2014 (Local Time) from CYQG Reporting Station
Overcast Overcast  
Wind Chill: 30°   Ceiling: 2300
Heat Index: 30°   Visibility: 15mi
Dew Point: 23°   Wind: 2mph
Humidity: 75%   Direction: 170°S
Pressure: 30.18"   Gusts: NA
Location:  42.27°N, 83.13°W
Report Text: CYQG 260800Z 17002KT 15SM OVC023 M01/M05 A3018 RMK SC8 SLP229
Loading
Personal Weather Stations






























Interactive Weather Map New forecast layout! Learn more

10-Day Weather Forecast

Advertisements
Track Severe Weather on mobile